Time;durP1;ratioP1;P1;durP2;ratioP2;P2;SDS_P1;SDS_P2;PMS_P1;PMS_P2;Temp;Humidity;BMP_temperature;BMP_pressure;BME280_temperature;BME280_humidity;BME280_pressure;Samples;Min_cycle;Max_cycle;Signal;HPM_P1;HPM_P2
2021/09/01 00:01:59;;;;;;;20.93;10.87;;;;;;;;;;5015982;28;20483;-77
2021/09/01 00:04:25;;;;;;;17.50;11.37;;;;;;;;;;5033387;28;20472;-79
2021/09/01 00:06:51;;;;;;;19.40;11.37;;;;;;;;;;5015803;28;20526;-77
2021/09/01 00:09:17;;;;;;;20.23;9.70;;;;;;;;;;5033177;28;20425;-77
2021/09/01 00:11:43;;;;;;;22.83;11.10;;;;;;;;;;5033479;28;20917;-77
2021/09/01 00:14:09;;;;;;;21.30;10.60;;;;;;;;;;5033238;28;20424;-77
2021/09/01 00:16:35;;;;;;;18.43;10.60;;;;;;;;;;5033298;28;20413;-77
2021/09/01 00:19:03;;;;;;;23.40;11.27;;;;;;;;;;5033033;28;20948;-76
2021/09/01 00:21:29;;;;;;;24.37;12.37;;;;;;;;;;5033287;28;20440;-76
2021/09/01 00:23:56;;;;;;;22.17;9.77;;;;;;;;;;5015467;28;20432;-76
2021/09/01 00:26:22;;;;;;;19.00;10.60;;;;;;;;;;5033086;28;20415;-77
2021/09/01 00:28:48;;;;;;;17.57;10.13;;;;;;;;;;5015045;28;20541;-76
2021/09/01 00:31:15;;;;;;;25.10;10.80;;;;;;;;;;5033111;28;20415;-76
2021/09/01 00:33:42;;;;;;;20.43;11.63;;;;;;;;;;5032868;28;20413;-77
2021/09/01 00:36:08;;;;;;;22.50;10.60;;;;;;;;;;5015416;28;20945;-77
2021/09/01 00:38:34;;;;;;;22.10;11.50;;;;;;;;;;5032611;28;20412;-77
2021/09/01 01:38:18;;;;;;;27.27;14.37;;;;;;;;;;5032611;28;20458;-77
2021/09/01 01:40:44;;;;;;;25.97;12.87;;;;;;;;;;5032279;28;20837;-77
2021/09/01 01:43:11;;;;;;;22.23;13.00;;;;;;;;;;5032405;28;20495;-77
2021/09/01 01:45:38;;;;;;;23.83;12.13;;;;;;;;;;5035012;28;20471;-76
2021/09/01 01:48:05;;;;;;;27.47;12.97;;;;;;;;;;5036013;28;20412;-77
2021/09/01 01:50:31;;;;;;;27.27;14.30;;;;;;;;;;5017803;28;21087;-76
2021/09/01 01:52:57;;;;;;;33.27;13.47;;;;;;;;;;5018156;28;20512;-77
2021/09/01 01:55:23;;;;;;;31.10;13.47;;;;;;;;;;5035897;28;20428;-76
2021/09/01 01:57:49;;;;;;;25.17;12.37;;;;;;;;;;5036060;28;20416;-77
2021/09/01 02:00:15;;;;;;;22.30;12.43;;;;;;;;;;5035387;28;20524;-78
2021/09/01 02:02:42;;;;;;;27.37;14.17;;;;;;;;;;5036810;28;20539;-77
2021/09/01 02:05:08;;;;;;;26.70;12.13;;;;;;;;;;5035950;28;20448;-77
2021/09/01 02:07:35;;;;;;;20.40;11.53;;;;;;;;;;5035748;28;20412;-77
2021/09/01 02:10:01;;;;;;;24.10;13.10;;;;;;;;;;5035299;28;20436;-76
2021/09/01 02:12:29;;;;;;;20.37;11.87;;;;;;;;;;5035554;28;20823;-76
2021/09/01 02:14:55;;;;;;;20.57;11.00;;;;;;;;;;5035522;28;20940;-77
2021/09/01 02:17:21;;;;;;;24.17;11.40;;;;;;;;;;5035244;28;20879;-76
2021/09/01 02:19:47;;;;;;;20.00;11.70;;;;;;;;;;5035152;28;20421;-75
2021/09/01 02:22:13;;;;;;;18.63;11.30;;;;;;;;;;5035429;28;20745;-75
2021/09/01 02:24:39;;;;;;;17.73;10.77;;;;;;;;;;5035328;28;20461;-75
2021/09/01 02:27:05;;;;;;;30.83;13.97;;;;;;;;;;5035204;28;20440;-76
2021/09/01 02:29:31;;;;;;;23.23;11.40;;;;;;;;;;5034813;28;20433;-78
2021/09/01 02:31:57;;;;;;;25.53;11.40;;;;;;;;;;5035225;28;20409;-78
2021/09/01 02:34:23;;;;;;;18.43;10.83;;;;;;;;;;5017624;28;20757;-78
2021/09/01 02:36:49;;;;;;;18.37;10.97;;;;;;;;;;5017457;28;20504;-78
2021/09/01 02:39:15;;;;;;;27.20;10.83;;;;;;;;;;5034507;28;20449;-78
2021/09/01 02:41:41;;;;;;;20.00;10.90;;;;;;;;;;5035308;28;20967;-78
2021/09/01 02:44:07;;;;;;;21.60;11.60;;;;;;;;;;5035038;28;20416;-77
2021/09/01 02:46:33;;;;;;;17.47;11.13;;;;;;;;;;5034763;28;20484;-77
2021/09/01 02:48:59;;;;;;;20.20;12.00;;;;;;;;;;5016787;28;20413;-77
2021/09/01 02:51:25;;;;;;;22.83;11.10;;;;;;;;;;5034866;28;20870;-78
2021/09/01 02:53:51;;;;;;;20.47;12.23;;;;;;;;;;5034888;28;20473;-78
2021/09/01 02:56:17;;;;;;;24.60;11.27;;;;;;;;;;5034535;28;20449;-77
2021/09/01 02:58:43;;;;;;;23.50;10.20;;;;;;;;;;5034304;28;20783;-77
2021/09/01 03:01:09;;;;;;;18.23;10.93;;;;;;;;;;5034628;28;20413;-77
2021/09/01 03:03:35;;;;;;;22.97;11.33;;;;;;;;;;5034540;28;20425;-78
2021/09/01 03:06:00;;;;;;;18.07;10.10;;;;;;;;;;5034494;28;20622;-77
2021/09/01 03:08:26;;;;;;;27.30;11.00;;;;;;;;;;5034449;28;20444;-78
2021/09/01 03:10:52;;;;;;;20.90;10.50;;;;;;;;;;5034152;28;20929;-77
2021/09/01 03:13:18;;;;;;;20.37;11.07;;;;;;;;;;5034495;28;20452;-77
2021/09/01 03:15:44;;;;;;;21.47;9.53;;;;;;;;;;5034121;28;20421;-78
2021/09/01 03:18:11;;;;;;;22.40;11.00;;;;;;;;;;5034384;28;20451;-79
2021/09/01 03:20:36;;;;;;;17.80;9.53;;;;;;;;;;5033821;28;20498;-77
2021/09/01 03:23:03;;;;;;;19.20;11.50;;;;;;;;;;5034270;28;20872;-77
2021/09/01 03:25:29;;;;;;;18.63;10.27;;;;;;;;;;5034137;28;20478;-78
2021/09/01 03:27:55;;;;;;;19.97;9.97;;;;;;;;;;5033941;28;20507;-77
2021/09/01 03:30:21;;;;;;;25.10;9.70;;;;;;;;;;5033638;28;20461;-78
2021/09/01 03:32:47;;;;;;;16.00;10.23;;;;;;;;;;5034142;28;20886;-78
2021/09/01 03:35:13;;;;;;;20.50;10.47;;;;;;;;;;5034256;28;20409;-78
2021/09/01 03:37:39;;;;;;;15.20;9.97;;;;;;;;;;5033994;28;20432;-78
2021/09/01 03:40:05;;;;;;;19.97;11.10;;;;;;;;;;5015557;28;20471;-78
2021/09/01 03:42:31;;;;;;;18.20;9.50;;;;;;;;;;5034029;28;20417;-78
2021/09/01 03:44:57;;;;;;;17.80;9.40;;;;;;;;;;5033663;28;20463;-78
2021/09/01 03:47:24;;;;;;;16.63;8.77;;;;;;;;;;5033777;28;20401;-78
2021/09/01 03:49:50;;;;;;;16.47;9.13;;;;;;;;;;5015447;28;20436;-79
2021/09/01 03:52:16;;;;;;;22.87;9.40;;;;;;;;;;5033536;28;20405;-78
2021/09/01 03:54:42;;;;;;;26.97;9.30;;;;;;;;;;5034055;28;20412;-78
2021/09/01 03:57:07;;;;;;;19.23;9.53;;;;;;;;;;5016049;28;20451;-78
2021/09/01 03:59:34;;;;;;;16.47;8.37;;;;;;;;;;5033349;28;20440;-79
2021/09/01 04:02:00;;;;;;;21.73;10.20;;;;;;;;;;5033593;28;20406;-78
2021/09/01 04:04:25;;;;;;;16.30;8.93;;;;;;;;;;5033463;28;20467;-78
2021/09/01 04:06:51;;;;;;;11.47;8.90;;;;;;;;;;5033219;28;20436;-78
2021/09/01 04:09:17;;;;;;;17.03;8.63;;;;;;;;;;5033100;28;20427;-78
2021/09/01 04:11:43;;;;;;;13.90;8.23;;;;;;;;;;5033568;28;20776;-78
2021/09/01 04:14:09;;;;;;;16.97;8.63;;;;;;;;;;5033179;28;20415;-77
2021/09/01 04:16:35;;;;;;;22.47;10.30;;;;;;;;;;5033315;28;20460;-77
2021/09/01 04:19:01;;;;;;;19.70;7.80;;;;;;;;;;5032893;28;20433;-78
2021/09/01 04:21:27;;;;;;;13.23;8.70;;;;;;;;;;5015760;28;20467;-77
2021/09/01 04:23:53;;;;;;;27.30;10.50;;;;;;;;;;5033359;28;20413;-78
2021/09/01 04:26:19;;;;;;;21.90;9.57;;;;;;;;;;5033242;28;20479;-78
2021/09/01 04:28:45;;;;;;;19.97;9.77;;;;;;;;;;5032965;28;20511;-78
2021/09/01 04:31:11;;;;;;;20.70;9.27;;;;;;;;;;5033271;28;20877;-78
2021/09/01 04:33:37;;;;;;;25.67;9.67;;;;;;;;;;5015710;28;20478;-78
2021/09/01 04:36:03;;;;;;;15.30;9.60;;;;;;;;;;5015804;28;20451;-78
2021/09/01 04:38:29;;;;;;;21.03;10.53;;;;;;;;;;5033001;28;20421;-77
2021/09/01 04:40:55;;;;;;;15.37;8.63;;;;;;;;;;5032550;28;20518;-78
2021/09/01 04:43:22;;;;;;;19.07;10.07;;;;;;;;;;5015489;28;20942;-77
2021/09/01 04:45:48;;;;;;;18.20;10.60;;;;;;;;;;5032992;28;20563;-77
2021/09/01 04:48:14;;;;;;;28.63;10.00;;;;;;;;;;5015700;28;20417;-78
2021/09/01 04:50:40;;;;;;;15.37;8.50;;;;;;;;;;5015016;28;21037;-78
2021/09/01 04:53:06;;;;;;;18.47;10.60;;;;;;;;;;5033240;28;20902;-78
2021/09/01 04:55:32;;;;;;;15.70;9.90;;;;;;;;;;5033064;28;20466;-78
2021/09/01 04:58:00;;;;;;;17.30;10.07;;;;;;;;;;5032940;28;20479;-78
2021/09/01 05:00:26;;;;;;;23.20;10.10;;;;;;;;;;5032193;28;20465;-79
2021/09/01 05:02:52;;;;;;;14.70;9.90;;;;;;;;;;5032825;28;20417;-78
2021/09/01 05:05:18;;;;;;;22.70;10.37;;;;;;;;;;5032807;28;20456;-78
2021/09/01 05:07:44;;;;;;;22.80;10.63;;;;;;;;;;5032917;28;20868;-78
2021/09/01 05:10:10;;;;;;;19.40;10.53;;;;;;;;;;5032481;28;20516;-77
2021/09/01 05:12:36;;;;;;;16.90;9.90;;;;;;;;;;5015180;28;20443;-78
2021/09/01 05:15:02;;;;;;;23.20;9.97;;;;;;;;;;5032569;28;20977;-77
2021/09/01 05:17:28;;;;;;;16.63;10.27;;;;;;;;;;5032599;28;20925;-78
2021/09/01 05:19:54;;;;;;;24.83;9.80;;;;;;;;;;5034104;28;20440;-79
2021/09/01 05:22:21;;;;;;;18.10;9.63;;;;;;;;;;5036518;28;20416;-78
2021/09/01 05:24:47;;;;;;;16.93;9.90;;;;;;;;;;5036253;28;20830;-78
2021/09/01 05:27:17;;;;;;;17.87;9.27;;;;;;;;;;5036478;28;20401;-78
2021/09/01 05:29:44;;;;;;;16.33;9.47;;;;;;;;;;5035924;28;20499;-79
2021/09/01 05:32:13;;;;;;;20.33;10.40;;;;;;;;;;5036162;28;20884;-77
2021/09/01 05:34:39;;;;;;;19.47;10.17;;;;;;;;;;5036104;28;20409;-78
2021/09/01 05:37:05;;;;;;;23.20;10.67;;;;;;;;;;5036372;28;20456;-78
2021/09/01 05:39:32;;;;;;;20.80;11.37;;;;;;;;;;5035869;28;20949;-79
2021/09/01 05:41:58;;;;;;;23.70;11.50;;;;;;;;;;5036367;28;20487;-78
2021/09/01 05:44:24;;;;;;;24.77;10.37;;;;;;;;;;5036201;28;20499;-77
2021/09/01 05:46:51;;;;;;;23.90;10.93;;;;;;;;;;5038878;28;20478;-79
2021/09/01 05:49:17;;;;;;;20.60;10.10;;;;;;;;;;5017579;28;20480;-78
2021/09/01 05:51:43;;;;;;;20.70;11.47;;;;;;;;;;5036015;28;20413;-77
2021/09/01 05:54:09;;;;;;;22.73;10.70;;;;;;;;;;5036000;28;20419;-78
2021/09/01 05:56:37;;;;;;;21.17;10.10;;;;;;;;;;5001934;28;20506;-78
2021/09/01 05:59:07;;;;;;;25.60;12.40;;;;;;;;;;5017521;28;20936;-78
2021/09/01 06:01:37;;;;;;;25.87;11.20;;;;;;;;;;5036222;28;20881;-79
2021/09/01 06:04:06;;;;;;;22.97;10.63;;;;;;;;;;5035869;28;20889;-78
2021/09/01 06:06:32;;;;;;;22.97;10.60;;;;;;;;;;5035708;28;20424;-79
2021/09/01 06:08:59;;;;;;;18.53;10.73;;;;;;;;;;5035169;28;20812;-78
2021/09/01 06:11:25;;;;;;;16.00;9.60;;;;;;;;;;5017878;28;20851;-78
2021/09/01 06:13:51;;;;;;;26.93;11.60;;;;;;;;;;5017776;28;20423;-78
2021/09/01 06:16:17;;;;;;;18.93;9.40;;;;;;;;;;5017985;28;20409;-78
2021/09/01 06:18:43;;;;;;;18.40;9.13;;;;;;;;;;5017451;28;20432;-79
2021/09/01 06:21:09;;;;;;;14.93;9.50;;;;;;;;;;5035269;28;20456;-78
2021/09/01 06:23:35;;;;;;;16.33;9.23;;;;;;;;;;5035346;28;20413;-79
2021/09/01 06:26:03;;;;;;;19.50;10.93;;;;;;;;;;5034823;28;20499;-78
2021/09/01 06:28:29;;;;;;;19.97;10.40;;;;;;;;;;5035246;28;20424;-78
2021/09/01 06:30:55;;;;;;;24.13;10.43;;;;;;;;;;5034750;28;20463;-79
2021/09/01 06:33:21;;;;;;;22.07;8.80;;;;;;;;;;5035337;28;20894;-78
2021/09/01 06:35:49;;;;;;;17.90;9.50;;;;;;;;;;5035274;28;20508;-78
2021/09/01 06:38:15;;;;;;;15.67;9.83;;;;;;;;;;5035080;28;20413;-78
2021/09/01 06:40:41;;;;;;;21.83;10.87;;;;;;;;;;5000664;28;20976;-79
2021/09/01 06:43:08;;;;;;;14.90;10.30;;;;;;;;;;5034866;28;20417;-78
2021/09/01 06:45:34;;;;;;;11.80;8.97;;;;;;;;;;5034821;28;20467;-78
2021/09/01 06:48:00;;;;;;;14.17;9.10;;;;;;;;;;5035182;28;20463;-79
2021/09/01 06:50:27;;;;;;;14.90;10.33;;;;;;;;;;5034433;28;20437;-78
2021/09/01 06:52:53;;;;;;;18.60;10.70;;;;;;;;;;5035115;28;20405;-78
2021/09/01 06:55:19;;;;;;;21.57;12.70;;;;;;;;;;5034681;28;20507;-78
2021/09/01 06:57:45;;;;;;;15.30;10.13;;;;;;;;;;5034930;28;20898;-79
2021/09/01 07:00:13;;;;;;;18.47;12.93;;;;;;;;;;5016712;28;20537;-78
2021/09/01 07:02:40;;;;;;;21.73;11.27;;;;;;;;;;5034768;28;20500;-79
2021/09/01 07:05:07;;;;;;;19.13;12.10;;;;;;;;;;5017021;28;20552;-78
2021/09/01 07:07:33;;;;;;;16.57;11.70;;;;;;;;;;5034428;28;20519;-78
2021/09/01 07:09:59;;;;;;;20.90;13.83;;;;;;;;;;5034174;28;20516;-77
2021/09/01 07:12:27;;;;;;;23.80;16.67;;;;;;;;;;5034478;28;20471;-79
2021/09/01 07:14:53;;;;;;;22.13;17.07;;;;;;;;;;5034362;28;20435;-79
2021/09/01 07:17:19;;;;;;;23.80;15.97;;;;;;;;;;5034340;28;20413;-78
2021/09/01 07:19:45;;;;;;;26.57;14.80;;;;;;;;;;5033825;28;20433;-78
2021/09/01 07:22:11;;;;;;;22.07;14.60;;;;;;;;;;5034275;28;20956;-79
2021/09/01 07:24:37;;;;;;;21.10;13.60;;;;;;;;;;5016427;28;20460;-78
2021/09/01 07:27:04;;;;;;;21.00;14.10;;;;;;;;;;5034109;28;20431;-78
2021/09/01 07:29:30;;;;;;;20.40;14.10;;;;;;;;;;5033790;28;20433;-78
2021/09/01 07:31:56;;;;;;;17.60;14.00;;;;;;;;;;5034141;28;20405;-78
2021/09/01 07:34:22;;;;;;;24.13;14.40;;;;;;;;;;5016645;28;20413;-78
2021/09/01 07:36:48;;;;;;;22.37;14.63;;;;;;;;;;5034043;28;20405;-79
2021/09/01 07:39:14;;;;;;;18.80;14.50;;;;;;;;;;5033397;28;20807;-78
2021/09/01 07:41:40;;;;;;;21.10;13.47;;;;;;;;;;5033746;28;20420;-78
2021/09/01 07:44:06;;;;;;;28.43;14.13;;;;;;;;;;5016151;28;20945;-79
2021/09/01 07:46:33;;;;;;;21.67;13.43;;;;;;;;;;5033761;28;20414;-78
2021/09/01 07:49:00;;;;;;;24.77;13.67;;;;;;;;;;5033482;28;20422;-79
2021/09/01 07:51:27;;;;;;;22.83;15.50;;;;;;;;;;5033908;28;20424;-78
2021/09/01 07:53:53;;;;;;;23.57;14.33;;;;;;;;;;5016021;28;20417;-79
2021/09/01 07:56:19;;;;;;;26.77;16.03;;;;;;;;;;5033842;28;20435;-79
2021/09/01 07:58:45;;;;;;;20.13;12.40;;;;;;;;;;5033350;28;20413;-78
2021/09/01 08:01:11;;;;;;;22.23;13.90;;;;;;;;;;5015918;28;20435;-78
2021/09/01 08:03:37;;;;;;;24.60;14.60;;;;;;;;;;5033569;28;20416;-79
2021/09/01 08:06:05;;;;;;;24.07;14.90;;;;;;;;;;5033109;28;21004;-78
2021/09/01 08:08:31;;;;;;;26.53;17.00;;;;;;;;;;5033132;28;20405;-78
2021/09/01 08:10:59;;;;;;;18.87;14.50;;;;;;;;;;5032871;28;20424;-78
2021/09/01 08:13:25;;;;;;;29.67;16.43;;;;;;;;;;5033070;28;20405;-78
2021/09/01 08:15:51;;;;;;;20.97;14.00;;;;;;;;;;5015340;28;20500;-78
2021/09/01 08:18:17;;;;;;;24.53;15.47;;;;;;;;;;5015235;28;20508;-78
2021/09/01 08:20:43;;;;;;;20.73;14.60;;;;;;;;;;5032453;28;20439;-78
2021/09/01 08:23:09;;;;;;;24.53;14.30;;;;;;;;;;5032805;28;20428;-79
2021/09/01 08:25:35;;;;;;;22.47;15.13;;;;;;;;;;5033175;28;20526;-78
2021/09/01 08:28:01;;;;;;;24.20;15.70;;;;;;;;;;5033114;28;20474;-78
2021/09/01 08:30:27;;;;;;;25.87;16.00;;;;;;;;;;5014946;28;20441;-78
2021/09/01 08:32:53;;;;;;;29.63;17.03;;;;;;;;;;5033421;28;20409;-78
2021/09/01 08:35:19;;;;;;;22.83;16.57;;;;;;;;;;5033199;28;20412;-78
2021/09/01 08:37:48;;;;;;;30.50;17.60;;;;;;;;;;5033358;28;20420;-78
2021/09/01 08:40:14;;;;;;;22.93;16.50;;;;;;;;;;5032404;28;20442;-78
2021/09/01 08:42:43;;;;;;;21.07;14.70;;;;;;;;;;5015718;28;20425;-78
2021/09/01 08:45:09;;;;;;;24.80;17.03;;;;;;;;;;5032979;28;20464;-79
2021/09/01 08:47:36;;;;;;;33.33;18.63;;;;;;;;;;5033175;28;20376;-79
2021/09/01 08:50:04;;;;;;;28.53;19.33;;;;;;;;;;5032638;28;20459;-78
2021/09/01 08:52:30;;;;;;;31.77;18.50;;;;;;;;;;5032573;28;20408;-77
2021/09/01 08:54:55;;;;;;;23.37;16.43;;;;;;;;;;5036169;28;20758;-77
2021/09/01 08:57:21;;;;;;;25.20;17.50;;;;;;;;;;5036889;28;20425;-77
2021/09/01 08:59:47;;;;;;;31.93;19.83;;;;;;;;;;5036699;28;20464;-76
2021/09/01 09:02:13;;;;;;;23.63;18.00;;;;;;;;;;5036358;28;20880;-77
2021/09/01 09:04:39;;;;;;;32.70;20.97;;;;;;;;;;5036938;28;20459;-77
2021/09/01 09:07:06;;;;;;;31.43;19.80;;;;;;;;;;5036955;28;20413;-77
2021/09/01 09:09:33;;;;;;;23.30;19.20;;;;;;;;;;5035800;28;20436;-77
2021/09/01 09:12:00;;;;;;;25.93;18.77;;;;;;;;;;5036534;28;20425;-77
2021/09/01 09:14:26;;;;;;;24.17;17.60;;;;;;;;;;5036214;28;20799;-77
2021/09/01 09:17:00;;;;;;;26.30;17.10;;;;;;;;;;5036691;28;20387;-77
2021/09/01 09:19:44;;;;;;;24.90;16.67;;;;;;;;;;5016463;28;20449;-77
2021/09/01 09:22:11;;;;;;;25.27;14.60;;;;;;;;;;5029208;28;20405;-77
2021/09/01 09:24:37;;;;;;;21.53;14.40;;;;;;;;;;5035860;28;20976;-76
2021/09/01 09:27:07;;;;;;;27.47;17.77;;;;;;;;;;5040605;28;20405;-77
2021/09/01 09:29:33;;;;;;;19.97;13.90;;;;;;;;;;5036298;28;20433;-78
2021/09/01 09:32:12;;;;;;;21.53;15.13;;;;;;;;;;5036470;28;20384;-78
2021/09/01 09:34:41;;;;;;;21.70;14.67;;;;;;;;;;5036272;28;20421;-78
2021/09/01 09:37:08;;;;;;;21.27;13.90;;;;;;;;;;5036285;28;20959;-78
2021/09/01 09:39:45;;;;;;;22.43;15.10;;;;;;;;;;5035779;28;20460;-78
2021/09/01 09:42:12;;;;;;;19.57;14.40;;;;;;;;;;5036324;28;20387;-77
2021/09/01 09:44:38;;;;;;;23.63;15.23;;;;;;;;;;5036121;28;20530;-79
2021/09/01 09:47:04;;;;;;;24.10;16.40;;;;;;;;;;5036578;28;20791;-78
2021/09/01 09:49:31;;;;;;;24.07;16.70;;;;;;;;;;5035972;28;20427;-78
2021/09/01 09:51:59;;;;;;;27.13;15.83;;;;;;;;;;5036192;28;20391;-77
2021/09/01 09:54:26;;;;;;;27.13;16.47;;;;;;;;;;5036195;28;20471;-78
2021/09/01 09:57:04;;;;;;;24.87;16.83;;;;;;;;;;5036090;28;20391;-78
2021/09/01 09:59:32;;;;;;;22.17;15.73;;;;;;;;;;5035697;28;20442;-78
2021/09/01 10:01:59;;;;;;;25.63;16.33;;;;;;;;;;5035926;28;20383;-79
2021/09/01 10:04:25;;;;;;;24.60;15.80;;;;;;;;;;5035586;28;20537;-79
2021/09/01 10:06:51;;;;;;;26.33;17.73;;;;;;;;;;5035091;28;20423;-79
2021/09/01 10:09:18;;;;;;;21.13;15.13;;;;;;;;;;5035363;28;20934;-78
2021/09/01 10:11:46;;;;;;;25.07;15.90;;;;;;;;;;5035905;28;20498;-79
2021/09/01 10:14:15;;;;;;;21.90;15.53;;;;;;;;;;5035625;28;20883;-78
2021/09/01 10:16:43;;;;;;;24.77;16.60;;;;;;;;;;5035487;28;20413;-79
2021/09/01 10:19:14;;;;;;;26.03;16.13;;;;;;;;;;5035009;28;20491;-77
2021/09/01 10:21:45;;;;;;;25.73;17.33;;;;;;;;;;5035448;28;20380;-77
2021/09/01 10:24:18;;;;;;;24.20;17.00;;;;;;;;;;5035354;28;20412;-77
2021/09/01 10:26:59;;;;;;;28.17;15.57;;;;;;;;;;5035271;28;20427;-76
2021/09/01 10:30:03;;;;;;;27.33;17.60;;;;;;;;;;5034913;28;20428;-76
2021/09/01 10:32:41;;;;;;;23.23;16.27;;;;;;;;;;4974144;28;20401;-76
2021/09/01 10:35:27;;;;;;;29.00;17.47;;;;;;;;;;4958125;28;20891;-76
2021/09/01 10:37:54;;;;;;;24.80;15.50;;;;;;;;;;5016697;28;20492;-75
2021/09/01 10:40:23;;;;;;;23.97;16.23;;;;;;;;;;5034866;28;20439;-77
2021/09/01 10:42:50;;;;;;;25.57;15.90;;;;;;;;;;5035313;28;20793;-77
2021/09/01 10:45:20;;;;;;;28.13;16.13;;;;;;;;;;5035014;28;20802;-76
2021/09/01 10:47:52;;;;;;;25.10;15.07;;;;;;;;;;5035135;28;20372;-77
2021/09/01 10:50:19;;;;;;;27.47;15.03;;;;;;;;;;5016951;28;20929;-77
2021/09/01 10:53:06;;;;;;;30.73;16.73;;;;;;;;;;5036998;28;20928;-76
2021/09/01 10:55:33;;;;;;;24.77;13.70;;;;;;;;;;5034944;28;20380;-76
2021/09/01 10:58:19;;;;;;;22.17;14.20;;;;;;;;;;5035063;28;20414;-76
2021/09/01 11:00:51;;;;;;;24.17;13.80;;;;;;;;;;5034426;28;20507;-76
2021/09/01 11:03:25;;;;;;;19.90;12.80;;;;;;;;;;5034836;28;20515;-76
2021/09/01 11:05:51;;;;;;;24.37;12.67;;;;;;;;;;5034866;28;20468;-76
2021/09/01 11:08:17;;;;;;;26.90;12.77;;;;;;;;;;5034727;28;20405;-75
2021/09/01 11:10:56;;;;;;;21.97;13.43;;;;;;;;;;5016408;28;20476;-78
2021/09/01 11:13:22;;;;;;;23.13;12.83;;;;;;;;;;5034400;28;20413;-78
2021/09/01 11:15:50;;;;;;;20.13;11.00;;;;;;;;;;5034509;28;20415;-78
2021/09/01 11:18:16;;;;;;;22.60;14.13;;;;;;;;;;5033442;28;20416;-79
2021/09/01 11:20:54;;;;;;;19.57;12.80;;;;;;;;;;5034023;28;20876;-79
2021/09/01 11:23:26;;;;;;;21.43;14.80;;;;;;;;;;5034220;28;20802;-78
2021/09/01 11:25:52;;;;;;;25.23;15.30;;;;;;;;;;5034208;28;20475;-79
2021/09/01 11:28:18;;;;;;;24.60;15.00;;;;;;;;;;5034156;28;20445;-78
2021/09/01 11:30:44;;;;;;;24.10;16.97;;;;;;;;;;5033850;28;20477;-78
2021/09/01 11:33:14;;;;;;;23.90;16.80;;;;;;;;;;5034318;28;20416;-78
2021/09/01 11:35:40;;;;;;;26.80;18.07;;;;;;;;;;5033970;28;20478;-78
2021/09/01 11:38:08;;;;;;;29.97;16.70;;;;;;;;;;5034122;28;20898;-79
2021/09/01 11:40:36;;;;;;;24.20;17.20;;;;;;;;;;5033529;28;20427;-78
2021/09/01 11:43:02;;;;;;;27.27;18.90;;;;;;;;;;5034018;28;20412;-78
2021/09/01 11:45:28;;;;;;;26.43;18.43;;;;;;;;;;5033712;28;20491;-78
2021/09/01 11:48:00;;;;;;;30.73;19.37;;;;;;;;;;5033848;28;20440;-78
2021/09/01 11:50:26;;;;;;;27.70;17.70;;;;;;;;;;5033483;28;20429;-79
2021/09/01 11:52:53;;;;;;;27.73;18.50;;;;;;;;;;5016455;28;20716;-78
2021/09/01 11:55:23;;;;;;;31.93;19.13;;;;;;;;;;5033918;28;20447;-78
2021/09/01 11:57:49;;;;;;;28.97;20.63;;;;;;;;;;5033723;28;20440;-78
2021/09/01 12:00:16;;;;;;;27.93;20.17;;;;;;;;;;5033198;28;20482;-79
2021/09/01 12:02:42;;;;;;;30.93;20.63;;;;;;;;;;5032950;28;20495;-79
2021/09/01 12:05:08;;;;;;;34.43;21.17;;;;;;;;;;5015575;28;20514;-80
2021/09/01 12:07:37;;;;;;;30.70;20.90;;;;;;;;;;5032919;28;20405;-79
2021/09/01 12:10:06;;;;;;;28.07;20.40;;;;;;;;;;5025415;28;20442;-80
2021/09/01 12:12:36;;;;;;;26.90;19.97;;;;;;;;;;5013591;28;20385;-80
2021/09/01 12:15:06;;;;;;;30.80;22.17;;;;;;;;;;5013494;28;20874;-80
2021/09/01 12:17:32;;;;;;;36.33;25.07;;;;;;;;;;5013574;28;20413;-79
2021/09/01 12:19:59;;;;;;;31.80;23.47;;;;;;;;;;5013041;28;20495;-79
2021/09/01 12:22:29;;;;;;;35.20;23.10;;;;;;;;;;5013435;28;20479;-79
2021/09/01 12:25:03;;;;;;;34.63;23.43;;;;;;;;;;5028575;28;20465;-79
2021/09/01 12:27:29;;;;;;;28.97;20.80;;;;;;;;;;5013226;28;20425;-79
2021/09/01 12:29:55;;;;;;;35.30;20.70;;;;;;;;;;5012567;28;20475;-80
2021/09/01 12:32:22;;;;;;;29.40;21.43;;;;;;;;;;5013522;28;20400;-79
2021/09/01 12:34:52;;;;;;;31.73;21.10;;;;;;;;;;5013457;28;20809;-80
2021/09/01 12:37:22;;;;;;;30.37;22.50;;;;;;;;;;5013358;28;20415;-79
2021/09/01 12:39:55;;;;;;;29.60;21.30;;;;;;;;;;5012719;28;20478;-79
2021/09/01 12:42:21;;;;;;;28.13;21.40;;;;;;;;;;5013493;28;20409;-79
2021/09/01 12:44:48;;;;;;;27.37;20.33;;;;;;;;;;5013250;28;20439;-80
2021/09/01 12:47:14;;;;;;;28.70;18.47;;;;;;;;;;5013442;28;20414;-79
2021/09/01 12:49:44;;;;;;;31.67;19.90;;;;;;;;;;5028126;28;20440;-79
2021/09/01 12:52:11;;;;;;;29.17;19.10;;;;;;;;;;5028429;28;20405;-79
2021/09/01 12:54:37;;;;;;;34.30;18.90;;;;;;;;;;5013347;28;20385;-80
2021/09/01 12:57:03;;;;;;;29.20;19.13;;;;;;;;;;5013369;28;20388;-79
2021/09/01 12:59:34;;;;;;;27.93;19.80;;;;;;;;;;5031711;28;20419;-79
2021/09/01 13:02:00;;;;;;;27.63;16.70;;;;;;;;;;5033193;28;20788;-80
2021/09/01 13:04:28;;;;;;;29.37;18.13;;;;;;;;;;5033903;28;20453;-79
2021/09/01 13:06:54;;;;;;;24.90;17.13;;;;;;;;;;5032914;28;20409;-80
2021/09/01 13:09:20;;;;;;;22.90;16.10;;;;;;;;;;5032525;28;20403;-80
2021/09/01 13:11:46;;;;;;;28.90;17.10;;;;;;;;;;5032884;28;20420;-79
2021/09/01 13:14:12;;;;;;;32.23;18.50;;;;;;;;;;5032278;28;20417;-79
2021/09/01 13:16:38;;;;;;;32.60;18.47;;;;;;;;;;5013192;28;20393;-79
2021/09/01 13:19:04;;;;;;;30.20;19.57;;;;;;;;;;5012686;28;20446;-79
2021/09/01 13:21:30;;;;;;;28.33;18.67;;;;;;;;;;5012984;28;20504;-79
2021/09/01 13:23:56;;;;;;;28.97;20.37;;;;;;;;;;5012648;28;20405;-80
2021/09/01 13:26:22;;;;;;;29.00;20.90;;;;;;;;;;5011481;28;20531;-79
2021/09/01 13:28:48;;;;;;;36.93;23.80;;;;;;;;;;5012439;28;20472;-80
2021/09/01 13:31:14;;;;;;;34.30;24.13;;;;;;;;;;5012912;28;20846;-79
2021/09/01 13:33:40;;;;;;;34.70;21.40;;;;;;;;;;5013297;28;20409;-78
2021/09/01 13:36:07;;;;;;;37.83;21.67;;;;;;;;;;5032477;28;20516;-79
2021/09/01 13:38:33;;;;;;;34.33;21.47;;;;;;;;;;5014640;28;21270;-80
2021/09/01 13:40:59;;;;;;;29.10;20.97;;;;;;;;;;5034057;28;20433;-79
2021/09/01 13:43:26;;;;;;;32.07;21.70;;;;;;;;;;5036187;28;20868;-77
2021/09/01 13:45:52;;;;;;;37.27;22.20;;;;;;;;;;5035946;28;20468;-76
2021/09/01 13:48:18;;;;;;;38.40;24.43;;;;;;;;;;5036002;28;20383;-77
2021/09/01 13:50:44;;;;;;;36.37;24.23;;;;;;;;;;5035554;28;20408;-76
2021/09/01 13:53:10;;;;;;;37.27;23.67;;;;;;;;;;5035893;28;20760;-76
2021/09/01 13:55:37;;;;;;;35.43;24.47;;;;;;;;;;5036214;28;20474;-75
2021/09/01 13:58:03;;;;;;;32.90;23.13;;;;;;;;;;5035956;28;20416;-76
2021/09/01 14:00:33;;;;;;;34.30;24.40;;;;;;;;;;5035713;28;20918;-75
2021/09/01 14:03:00;;;;;;;34.30;23.47;;;;;;;;;;5036118;28;20376;-75
2021/09/01 14:05:26;;;;;;;31.20;22.00;;;;;;;;;;5035776;28;20435;-76
2021/09/01 14:07:52;;;;;;;30.37;22.10;;;;;;;;;;5035700;28;20390;-75
2021/09/01 14:10:18;;;;;;;37.60;24.30;;;;;;;;;;5035141;28;20403;-76
2021/09/01 14:12:46;;;;;;;37.77;25.17;;;;;;;;;;5035544;28;20392;-76
2021/09/01 14:15:12;;;;;;;35.43;22.33;;;;;;;;;;5017729;28;20880;-76
2021/09/01 14:17:38;;;;;;;38.83;25.47;;;;;;;;;;5035461;28;20419;-76
2021/09/01 14:20:06;;;;;;;35.23;25.87;;;;;;;;;;5034842;28;20773;-78
2021/09/01 14:22:32;;;;;;;37.87;23.53;;;;;;;;;;5034244;28;20379;-78
2021/09/01 14:24:58;;;;;;;37.73;23.73;;;;;;;;;;5034994;28;20514;-78
2021/09/01 14:27:24;;;;;;;33.73;23.00;;;;;;;;;;5035119;28;20896;-78
2021/09/01 14:29:50;;;;;;;31.40;20.23;;;;;;;;;;5034861;28;20964;-79
2021/09/01 14:32:16;;;;;;;31.33;20.10;;;;;;;;;;5034887;28;20905;-78
2021/09/01 14:34:42;;;;;;;35.60;21.30;;;;;;;;;;5034904;28;20421;-79
2021/09/01 14:37:08;;;;;;;30.43;20.80;;;;;;;;;;5035087;28;20510;-77
2021/09/01 14:39:35;;;;;;;29.30;19.80;;;;;;;;;;5034432;28;20438;-78
2021/09/01 14:42:01;;;;;;;31.87;21.90;;;;;;;;;;5035051;28;20732;-78
2021/09/01 14:44:27;;;;;;;29.73;20.27;;;;;;;;;;5034716;28;20387;-78
2021/09/01 14:46:53;;;;;;;26.90;18.97;;;;;;;;;;5035132;28;20387;-78
2021/09/01 14:49:19;;;;;;;32.10;20.00;;;;;;;;;;5034178;28;20432;-77
2021/09/01 14:51:45;;;;;;;28.70;19.60;;;;;;;;;;5031501;28;20439;-77
2021/09/01 14:54:11;;;;;;;23.83;18.70;;;;;;;;;;5034203;28;20405;-78
2021/09/01 14:56:37;;;;;;;28.30;18.47;;;;;;;;;;5034246;28;20821;-79
2021/09/01 14:59:03;;;;;;;24.80;19.63;;;;;;;;;;5034476;28;20524;-78
2021/09/01 15:01:31;;;;;;;31.23;19.50;;;;;;;;;;5034708;28;20392;-78
2021/09/01 15:03:56;;;;;;;28.50;19.87;;;;;;;;;;5034413;28;20413;-78
2021/09/01 15:06:22;;;;;;;28.77;21.83;;;;;;;;;;5034545;28;20472;-78
2021/09/01 15:08:48;;;;;;;36.20;22.93;;;;;;;;;;5033918;28;20495;-78
2021/09/01 15:11:14;;;;;;;29.90;21.60;;;;;;;;;;5034246;28;20400;-78
2021/09/01 15:13:42;;;;;;;33.80;23.13;;;;;;;;;;5033765;28;20823;-78
2021/09/01 15:16:08;;;;;;;34.00;24.80;;;;;;;;;;5033792;28;20384;-78